Terminal Aerodrome Forecast
Issued by NWS

Home | Current Version | Previous Version | Text Only | Print | Product List | Glossary On
Versions: 1 2 3 4 5 6 7 8 9 10 11 12 13 14 15 16 17 18 19
000
FTUS43 KAPX 311700
TAFPLN
TAF
KPLN 311720Z 3118/0118 26010KT P6SM FEW050
     FM010000 00000KT P6SM SCT050
     FM011000 00000KT 4SM MIFG FEW090
     FM011400 12006KT P6SM FEW090=

USA.gov is the U.S. government's official web portal to all federal, state and local government web resources and services.